Rechercher aéroport 
image banner adimage banner adimage banner ad
image banner ad

KRVL - Mifflin County

Situé à Reedsville, United States

ICAO - RVL, IATA -

Données fournies par Airmate  

Information générale

Coordonnées: N40°40'39" W77°37'37"
Élévation : 819 feet MSL.
Variation magnétique : -10° East
Voir autres Aéroports à Pennsylvania

Données opérationnelles

Special qualification required
Heure actuelle UTC:
Heure actuelle locale:
Météo
METAR: KRVL 131935Z AUTO 14006KT 5SM HZ SCT031 SCT036 28/20 A2985 RMK AO2
Voir NOTAMs / SUP AIP / TFR affectant cet aéroport [VIEW]
Fréquences de communication: [VIEW]

Pistes:

Identifiant RWYQFULongueur (ft)Largeur (ft)SurfaceLDA (ft)
0649°500175ASPH
24229°500175ASPH

Coordonnées de l'aéroport

Adresse: Reedsville United States

Autres services d'aviation

Écoles de pilotage

Mc Flying Club

Mc Flying Club
info@mcairrental.com+1(717)441-2133

Vue satellite de KRVL